createdAt,value
2017-11-25T00:00:22.381Z,42.60
2017-11-25T00:02:49.976Z,39.78
2017-11-25T00:05:17.592Z,44.88
2017-11-25T00:07:45.159Z,45.15
2017-11-25T00:10:12.761Z,41.28
2017-11-25T00:12:40.388Z,43.87
2017-11-25T00:15:08.016Z,38.80
2017-11-25T00:17:35.615Z,39.85
2017-11-25T00:20:03.984Z,42.47
2017-11-25T00:22:31.592Z,47.33
2017-11-25T00:24:59.198Z,42.15
2017-11-25T00:27:26.812Z,44.80
2017-11-25T00:29:54.346Z,42.47
2017-11-25T00:32:22.707Z,39.58
2017-11-25T00:34:51.075Z,42.03
2017-11-25T00:37:18.666Z,40.28
2017-11-25T00:39:47.024Z,41.70
2017-11-25T00:42:14.629Z,37.28
2017-11-25T00:44:42.180Z,36.58
2017-11-25T00:47:09.819Z,34.08
2017-11-25T00:49:37.411Z,34.08
2017-11-25T00:52:05.016Z,36.17
2017-11-25T00:54:32.624Z,32.58
2017-11-25T00:57:00.225Z,30.62
2017-11-25T00:59:27.823Z,32.15
2017-11-25T01:01:55.437Z,33.75
2017-11-25T01:04:23.010Z,42.97
2017-11-25T01:06:50.613Z,40.22
2017-11-25T01:09:18.216Z,38.00
2017-11-25T01:11:45.807Z,44.83
2017-11-25T01:14:13.367Z,44.00
2017-11-25T01:16:40.960Z,46.05
2017-11-25T01:19:08.558Z,50.47
2017-11-25T01:21:36.268Z,57.58
2017-11-25T01:24:03.876Z,47.58
2017-11-25T01:26:31.436Z,57.75
2017-11-25T01:28:59.028Z,59.72
2017-11-25T01:31:26.588Z,57.35
2017-11-25T01:33:54.191Z,52.17
2017-11-25T01:36:21.831Z,52.70
2017-11-25T01:38:50.237Z,52.22
2017-11-25T01:41:17.823Z,50.53
2017-11-25T01:43:45.436Z,57.47
2017-11-25T01:46:13.761Z,52.90
2017-11-25T01:48:41.352Z,53.72
2017-11-25T01:51:08.944Z,55.38
2017-11-25T01:53:36.511Z,54.85
2017-11-25T01:56:04.185Z,47.92
2017-11-25T01:58:31.792Z,50.88
2017-11-25T02:00:59.430Z,50.97
2017-11-25T02:03:27.021Z,53.65
2017-11-25T02:05:54.634Z,53.72
2017-11-25T02:08:22.284Z,55.63
2017-11-25T02:10:49.880Z,55.30
2017-11-25T02:13:17.544Z,54.40
2017-11-25T02:15:45.207Z,48.38
2017-11-25T02:18:12.785Z,48.42
2017-11-25T02:20:40.400Z,50.47
2017-11-25T02:23:08.021Z,47.60
2017-11-25T02:25:35.647Z,48.97
2017-11-25T02:28:03.280Z,46.97
2017-11-25T02:30:30.882Z,46.97
2017-11-25T02:32:58.484Z,48.25
2017-11-25T02:35:26.117Z,51.03
2017-11-25T02:37:53.785Z,49.13
2017-11-25T02:40:21.405Z,47.58
2017-11-25T02:42:48.983Z,50.55
2017-11-25T02:45:16.613Z,51.22
2017-11-25T02:47:44.298Z,53.75
2017-11-25T02:50:11.929Z,45.35
2017-11-25T02:52:39.549Z,51.08
2017-11-25T02:55:07.156Z,51.28
2017-11-25T02:57:34.748Z,50.22
2017-11-25T03:00:02.344Z,52.75
2017-11-25T03:02:29.954Z,55.83
2017-11-25T03:04:57.542Z,58.15
2017-11-25T03:07:25.157Z,50.47
2017-11-25T03:09:52.789Z,57.97
2017-11-25T03:12:20.350Z,51.42
2017-11-25T03:14:47.952Z,50.78
2017-11-25T03:17:15.562Z,52.83
2017-11-25T03:19:43.196Z,52.53
2017-11-25T03:22:10.843Z,57.10
2017-11-25T03:24:38.487Z,52.10
2017-11-25T03:27:06.141Z,53.92
2017-11-25T03:29:33.741Z,54.50
2017-11-25T03:32:01.339Z,56.00
2017-11-25T03:34:28.907Z,58.35
2017-11-25T03:36:56.501Z,58.67
2017-11-25T03:39:24.062Z,54.42
2017-11-25T03:41:51.655Z,48.87
2017-11-25T03:44:19.217Z,53.13
2017-11-25T03:46:46.771Z,49.90
2017-11-25T03:49:14.335Z,48.95
2017-11-25T03:51:41.998Z,42.25
2017-11-25T03:54:09.611Z,45.65
2017-11-25T03:56:37.209Z,49.33
2017-11-25T03:59:04.857Z,49.75
2017-11-25T04:01:32.519Z,43.67
2017-11-25T04:04:00.168Z,44.38
2017-11-25T04:06:27.752Z,45.72
2017-11-25T04:08:55.416Z,43.00
2017-11-25T04:11:23.017Z,42.42
2017-11-25T04:13:51.351Z,46.20
2017-11-25T04:16:18.943Z,43.65
2017-11-25T04:18:46.536Z,42.20
2017-11-25T04:21:14.154Z,51.15
2017-11-25T04:23:41.787Z,42.45
2017-11-25T04:26:09.432Z,48.63
2017-11-25T04:28:37.005Z,47.40
2017-11-25T04:31:04.585Z,44.20
2017-11-25T04:33:32.221Z,53.22
2017-11-25T04:35:59.823Z,47.97
2017-11-25T04:38:27.452Z,48.45
2017-11-25T04:40:55.026Z,45.80
2017-11-25T04:43:22.643Z,50.17
2017-11-25T04:45:50.248Z,41.60
2017-11-25T04:48:17.813Z,47.45
2017-11-25T04:50:45.420Z,48.30
2017-11-25T04:53:13.029Z,50.20
2017-11-25T04:55:40.616Z,54.85
2017-11-25T04:58:08.178Z,57.33
2017-11-25T05:00:35.849Z,56.42
2017-11-25T05:03:04.186Z,58.17
2017-11-25T05:05:31.817Z,57.28
2017-11-25T05:07:59.448Z,49.33
2017-11-25T05:10:27.854Z,57.05
2017-11-25T05:12:55.448Z,56.72
2017-11-25T05:15:23.047Z,52.17
2017-11-25T05:17:51.389Z,53.25
2017-11-25T05:20:19.052Z,57.83
2017-11-25T05:22:46.648Z,55.63
2017-11-25T05:25:14.269Z,66.55
2017-11-25T05:27:41.888Z,57.25
2017-11-25T05:30:10.260Z,54.10
2017-11-25T05:32:38.639Z,60.47
2017-11-25T05:35:06.304Z,70.47
2017-11-25T05:37:33.953Z,60.50
2017-11-25T05:40:01.635Z,63.22
2017-11-25T05:42:29.271Z,57.08
2017-11-25T05:44:56.863Z,62.65
2017-11-25T05:47:24.457Z,58.92
2017-11-25T05:49:52.821Z,60.42
2017-11-25T05:52:20.467Z,57.72
2017-11-25T05:54:49.533Z,68.40
2017-11-25T05:57:17.980Z,67.37
2017-11-25T05:59:49.336Z,55.58
2017-11-25T06:02:17.175Z,56.05
2017-11-25T06:04:45.892Z,59.17
2017-11-25T06:07:13.530Z,59.40
2017-11-25T06:09:43.064Z,57.45
2017-11-25T06:12:12.415Z,63.22
2017-11-25T06:14:41.239Z,60.00
2017-11-25T06:17:09.912Z,60.85
2017-11-25T06:19:38.452Z,51.90
2017-11-25T06:22:06.820Z,57.00
2017-11-25T06:24:34.737Z,46.58
2017-11-25T06:29:37.390Z,56.83
2017-11-25T06:32:07.165Z,60.40
2017-11-25T06:34:34.746Z,58.53
2017-11-25T06:37:03.305Z,52.45
2017-11-25T06:39:35.728Z,56.83
2017-11-25T06:42:04.322Z,51.13
2017-11-25T06:44:31.977Z,59.67
2017-11-25T06:47:00.340Z,55.00
2017-11-25T06:49:30.640Z,55.75
2017-11-25T06:51:59.195Z,57.92
2017-11-25T06:54:27.728Z,54.05
2017-11-25T06:56:55.280Z,64.35
2017-11-25T06:59:25.609Z,55.28
2017-11-25T07:01:54.416Z,51.65
2017-11-25T07:04:22.808Z,52.05
2017-11-25T07:06:50.403Z,56.08
2017-11-25T07:09:18.624Z,56.67
2017-11-25T07:11:46.985Z,51.13
2017-11-25T07:14:14.713Z,55.25
2017-11-25T07:16:42.663Z,60.47
2017-11-25T07:19:11.517Z,43.80
2017-11-25T07:21:39.107Z,52.30
2017-11-25T07:24:06.686Z,51.83
2017-11-25T07:26:34.245Z,51.37
2017-11-25T07:29:01.819Z,50.90
2017-11-25T07:31:29.392Z,48.47
2017-11-25T07:33:56.977Z,55.95
2017-11-25T07:36:24.575Z,50.12
2017-11-25T07:38:52.125Z,65.85
2017-11-25T07:41:19.776Z,60.20
2017-11-25T07:43:48.037Z,85.57
2017-11-25T07:46:17.416Z,47.60
2017-11-25T07:48:45.516Z,43.47
2017-11-25T07:51:17.063Z,65.47
2017-11-25T07:53:48.304Z,65.37
2017-11-25T07:56:16.683Z,47.10
2017-11-25T07:58:45.033Z,48.67
2017-11-25T08:01:13.353Z,51.60
2017-11-25T08:03:41.673Z,45.47
2017-11-25T08:06:09.868Z,40.12
2017-11-25T08:08:37.468Z,41.28
2017-11-25T08:11:05.091Z,45.25
2017-11-25T08:13:32.742Z,42.10
2017-11-25T08:16:00.617Z,41.53
2017-11-25T08:18:28.213Z,39.20
2017-11-25T08:20:55.850Z,40.20
2017-11-25T08:23:23.471Z,41.63
2017-11-25T08:25:51.267Z,39.28
2017-11-25T08:28:18.885Z,35.25
2017-11-25T08:30:51.690Z,36.20
2017-11-25T08:33:19.372Z,36.47
2017-11-25T08:35:46.967Z,34.53
2017-11-25T08:38:14.580Z,38.08
2017-11-25T08:40:42.141Z,34.65
2017-11-25T08:43:10.391Z,31.05
2017-11-25T08:45:40.183Z,36.22
2017-11-25T08:48:08.581Z,32.13
2017-11-25T08:50:36.136Z,30.58
2017-11-25T08:53:03.747Z,32.50
2017-11-25T08:55:31.310Z,31.77
2017-11-25T08:57:58.865Z,32.75
2017-11-25T09:00:26.425Z,35.22
2017-11-25T09:02:54.050Z,32.05
2017-11-25T09:05:21.680Z,34.78
2017-11-25T09:07:53.082Z,34.70
2017-11-25T09:10:20.831Z,29.80
2017-11-25T09:12:48.477Z,33.97
2017-11-25T09:15:16.149Z,33.95
2017-11-25T09:17:44.113Z,35.33
2017-11-25T09:20:11.852Z,34.88
2017-11-25T09:30:15.439Z,36.03
2017-11-25T09:32:43.061Z,37.03
2017-11-25T09:35:13.293Z,34.63
2017-11-25T09:37:41.720Z,34.17
2017-11-25T09:40:09.356Z,36.85
2017-11-25T09:42:36.996Z,32.92
2017-11-25T09:45:04.661Z,35.38
2017-11-25T09:47:33.056Z,41.85
2017-11-25T09:50:01.521Z,41.58
2017-11-25T09:52:29.409Z,34.97
2017-11-25T09:54:57.340Z,41.28
2017-11-25T09:57:24.957Z,39.13
2017-11-25T09:59:52.631Z,47.90
2017-11-25T10:02:20.225Z,38.65
2017-11-25T10:04:47.821Z,44.55
2017-11-25T10:07:15.411Z,40.08
2017-11-25T10:09:43.208Z,39.42
2017-11-25T10:12:10.819Z,41.75
2017-11-25T10:14:38.867Z,33.92
2017-11-25T10:17:10.166Z,37.47
2017-11-25T10:19:37.761Z,45.97
2017-11-25T10:22:07.137Z,36.65
2017-11-25T10:24:34.761Z,34.88
2017-11-25T10:27:02.352Z,42.67
2017-11-25T10:29:30.212Z,42.03
2017-11-25T10:31:58.123Z,36.15
2017-11-25T10:34:25.741Z,37.42
2017-11-25T10:36:53.324Z,34.90
2017-11-25T10:39:20.901Z,40.78
2017-11-25T10:41:48.524Z,38.25
2017-11-25T10:44:16.698Z,38.88
2017-11-25T10:46:44.546Z,42.30
2017-11-25T10:49:12.137Z,46.78
2017-11-25T10:51:39.901Z,42.13
2017-11-25T10:54:08.004Z,45.33
2017-11-25T10:56:35.671Z,40.15
2017-11-25T10:59:04.040Z,47.25
2017-11-25T11:01:31.632Z,40.72
2017-11-25T11:03:59.191Z,35.65
2017-11-25T11:06:26.807Z,41.70
2017-11-25T11:08:54.456Z,40.72
2017-11-25T11:11:22.012Z,41.10
2017-11-25T11:13:49.601Z,51.75
2017-11-25T11:16:17.198Z,35.17
2017-11-25T11:18:44.916Z,44.47
2017-11-25T11:21:12.510Z,52.42
2017-11-25T11:23:40.107Z,39.13
2017-11-25T11:26:07.739Z,34.35
2017-11-25T11:28:35.345Z,44.47
2017-11-25T11:31:02.957Z,38.92
2017-11-25T11:33:30.983Z,37.88
2017-11-25T11:38:31.468Z,34.65
2017-11-25T11:41:05.976Z,40.28
2017-11-25T11:43:33.858Z,37.13
2017-11-25T11:46:02.324Z,37.20
2017-11-25T11:48:30.692Z,44.63
2017-11-25T11:50:58.291Z,38.20
2017-11-25T11:53:26.509Z,39.28
2017-11-25T11:55:54.116Z,41.47
2017-11-25T11:58:21.740Z,42.00
2017-11-25T12:00:49.349Z,39.90
2017-11-25T12:03:17.123Z,39.10
2017-11-25T12:05:44.738Z,44.97
2017-11-25T12:08:12.320Z,45.63
2017-11-25T12:10:40.750Z,43.35
2017-11-25T12:13:10.481Z,43.45
2017-11-25T12:15:39.081Z,48.00
2017-11-25T12:18:06.653Z,49.10
2017-11-25T12:20:37.002Z,38.28
2017-11-25T12:23:05.124Z,38.67
2017-11-25T12:51:06.104Z,40.08
2017-11-25T12:53:33.681Z,40.50
2017-11-25T12:56:01.240Z,44.55
2017-11-25T12:58:28.832Z,38.05
2017-11-25T13:00:56.426Z,34.10
2017-11-25T13:03:24.012Z,35.72
2017-11-25T13:05:51.560Z,35.40
2017-11-25T13:08:19.168Z,54.85
2017-11-25T13:10:46.765Z,53.63
2017-11-25T13:13:14.389Z,49.72
2017-11-25T13:15:42.001Z,56.20
2017-11-25T13:18:09.688Z,36.97
2017-11-25T13:20:37.280Z,42.65
2017-11-25T13:23:05.043Z,60.15
2017-11-25T13:25:33.468Z,39.60
2017-11-25T13:28:01.100Z,32.58
2017-11-25T13:30:28.769Z,43.45
2017-11-25T13:32:56.426Z,29.58
2017-11-25T13:35:23.999Z,27.27
2017-11-25T13:37:51.588Z,34.70
2017-11-25T13:40:19.185Z,33.20
2017-11-25T13:42:46.795Z,26.35
2017-11-25T13:45:14.409Z,28.70
2017-11-25T13:47:42.033Z,27.05
2017-11-25T13:50:09.612Z,27.00
2017-11-25T13:52:37.208Z,26.20
2017-11-25T13:55:04.816Z,28.25
2017-11-25T13:57:32.417Z,24.37
2017-11-25T14:00:00.893Z,22.45
2017-11-25T14:02:28.520Z,26.58
2017-11-25T14:04:56.501Z,26.85
2017-11-25T14:07:24.188Z,26.65
2017-11-25T14:09:51.853Z,24.25
2017-11-25T14:12:19.487Z,27.23
2017-11-25T14:14:47.089Z,27.10
2017-11-25T14:17:15.708Z,29.50
2017-11-25T14:19:43.447Z,30.02
2017-11-25T14:22:11.057Z,32.55
2017-11-25T14:24:38.704Z,26.33
2017-11-25T14:27:06.640Z,28.65
2017-11-25T14:29:34.800Z,23.60
2017-11-25T14:32:02.469Z,31.65
2017-11-25T14:34:30.898Z,24.87
2017-11-25T14:36:58.496Z,86.78
2017-11-25T14:39:26.104Z,54.03
2017-11-25T14:41:53.752Z,97.25
2017-11-25T14:44:21.358Z,34.67
2017-11-25T14:46:48.972Z,35.53
2017-11-25T14:49:16.597Z,25.40
2017-11-25T14:51:44.165Z,52.05
2017-11-25T14:54:11.769Z,62.50
2017-11-25T14:56:39.375Z,25.20
2017-11-25T14:59:06.972Z,32.33
2017-11-25T15:01:35.059Z,51.03
2017-11-25T15:04:04.657Z,26.50
2017-11-25T15:06:33.205Z,35.15
2017-11-25T15:09:00.833Z,30.55
2017-11-25T15:11:28.521Z,24.17
2017-11-25T15:13:56.111Z,35.05
2017-11-25T15:16:23.728Z,31.40
2017-11-25T15:18:51.340Z,34.40
2017-11-25T15:21:18.965Z,33.08
2017-11-25T15:23:46.632Z,27.05
2017-11-25T15:26:14.211Z,28.42
2017-11-25T15:28:41.817Z,30.58
2017-11-25T15:31:10.728Z,25.50
2017-11-25T15:33:38.453Z,46.13
2017-11-25T15:36:06.601Z,39.45
2017-11-25T15:38:35.844Z,35.45
2017-11-25T15:41:03.439Z,27.15
2017-11-25T15:43:31.059Z,26.20
2017-11-25T15:45:59.683Z,34.05
2017-11-25T15:48:27.332Z,34.60
2017-11-25T15:50:54.986Z,30.12
2017-11-25T15:53:26.716Z,21.75
2017-11-25T15:55:54.681Z,29.87
2017-11-25T16:03:26.456Z,32.03
2017-11-25T16:05:54.141Z,26.35
2017-11-25T16:08:21.718Z,27.65
2017-11-25T16:10:49.352Z,31.55
2017-11-25T16:13:17.920Z,30.83
2017-11-25T16:15:46.708Z,29.70
2017-11-25T16:18:15.081Z,35.25
2017-11-25T16:20:46.789Z,32.72
2017-11-25T16:23:14.478Z,37.78
2017-11-25T16:25:42.126Z,34.30
2017-11-25T16:28:09.719Z,34.05
2017-11-25T16:30:37.429Z,33.10
2017-11-25T16:33:05.041Z,30.77
2017-11-25T16:35:33.582Z,45.85
2017-11-25T16:38:01.224Z,40.55
2017-11-25T16:40:28.834Z,40.63
2017-11-25T16:42:56.437Z,41.85
2017-11-25T16:45:24.852Z,41.33
2017-11-25T16:47:52.464Z,37.92
2017-11-25T16:50:20.068Z,45.03
2017-11-25T16:52:47.669Z,40.28
2017-11-25T16:55:15.238Z,36.80
2017-11-25T16:57:43.796Z,35.72
2017-11-25T17:00:11.404Z,36.78
2017-11-25T17:02:38.999Z,35.83
2017-11-25T17:05:06.591Z,41.15
2017-11-25T17:07:34.190Z,40.33
2017-11-25T17:10:01.837Z,38.78
2017-11-25T17:12:29.464Z,38.80
2017-11-25T17:14:57.074Z,31.90
2017-11-25T17:17:24.665Z,33.20
2017-11-25T17:19:52.265Z,32.00
2017-11-25T17:22:20.635Z,35.22
2017-11-25T17:24:48.241Z,32.60
2017-11-25T17:27:15.812Z,33.92
2017-11-25T17:29:43.374Z,28.50
2017-11-25T17:32:10.996Z,27.90
2017-11-25T17:34:38.612Z,32.85
2017-11-25T17:37:06.238Z,28.65
2017-11-25T17:39:33.856Z,16.62
2017-11-25T17:42:01.495Z,5.85
2017-11-25T17:44:29.089Z,9.30
2017-11-25T17:46:56.693Z,2.67
2017-11-25T17:49:25.433Z,3.95
2017-11-25T17:51:53.219Z,1.98
2017-11-25T17:54:20.881Z,1.83
2017-11-25T17:56:49.251Z,1.83
2017-11-25T17:59:16.841Z,2.90
2017-11-25T18:01:44.443Z,2.40
2017-11-25T18:04:13.423Z,3.70
2017-11-25T18:06:41.009Z,2.42
2017-11-25T18:09:08.598Z,2.25
2017-11-25T18:11:36.180Z,2.30
2017-11-25T18:14:03.712Z,2.03
2017-11-25T18:16:32.340Z,2.80
2017-11-25T18:18:59.941Z,3.05
2017-11-25T18:21:27.562Z,2.28
2017-11-25T18:23:55.156Z,2.30
2017-11-25T18:26:22.760Z,2.70
2017-11-25T18:28:50.938Z,2.40
2017-11-25T18:31:18.867Z,3.08
2017-11-25T18:33:47.147Z,4.62
2017-11-25T18:36:14.974Z,2.28
2017-11-25T18:38:42.877Z,2.33
2017-11-25T18:41:10.581Z,2.50
2017-11-25T18:43:38.642Z,2.90
2017-11-25T18:46:08.350Z,1.40
2017-11-25T18:48:37.772Z,1.70
2017-11-25T18:51:07.433Z,2.62
2017-11-25T18:53:36.409Z,2.50
2017-11-25T18:56:05.868Z,2.05
2017-11-25T18:58:34.984Z,1.87
2017-11-25T19:01:03.487Z,2.37
2017-11-25T19:03:31.413Z,1.83
2017-11-25T19:05:59.460Z,1.60
2017-11-25T19:08:28.765Z,1.62
2017-11-25T19:10:59.848Z,1.37
2017-11-25T19:13:27.604Z,1.50
2017-11-25T19:15:58.549Z,1.60
2017-11-25T19:18:26.960Z,1.70
2017-11-25T19:20:55.122Z,1.50
2017-11-25T19:23:23.249Z,1.35
2017-11-25T19:25:51.393Z,1.37
2017-11-25T19:28:19.536Z,1.40
2017-11-25T19:30:47.928Z,1.45
2017-11-25T19:33:16.385Z,1.37
2017-11-25T19:35:44.735Z,1.27
2017-11-25T19:38:12.605Z,1.12
2017-11-25T19:40:40.873Z,2.20
2017-11-25T19:43:09.598Z,1.83
2017-11-25T19:45:38.024Z,1.98
2017-11-25T19:48:07.044Z,1.87
2017-11-25T19:50:36.469Z,2.05
2017-11-25T19:53:05.020Z,1.85
2017-11-25T19:55:32.877Z,1.75
2017-11-25T19:58:01.632Z,2.10
2017-11-25T20:00:29.432Z,2.00
2017-11-25T20:02:57.065Z,1.40
2017-11-25T20:05:24.764Z,1.60
2017-11-25T20:07:53.511Z,1.42
2017-11-25T20:10:21.246Z,1.50
2017-11-25T20:12:49.177Z,1.27
2017-11-25T20:15:17.114Z,1.60
2017-11-25T20:17:45.369Z,1.10
2017-11-25T20:20:13.507Z,1.20
2017-11-25T20:22:42.246Z,1.15
2017-11-25T20:25:10.339Z,1.25
2017-11-25T20:27:38.467Z,1.25
2017-11-25T20:30:06.255Z,1.20
2017-11-25T20:32:34.165Z,1.25
2017-11-25T20:35:02.072Z,1.12
2017-11-25T20:37:30.605Z,1.12
2017-11-25T20:40:02.249Z,1.40
2017-11-25T20:42:30.258Z,1.20
2017-11-25T20:44:58.245Z,1.65
2017-11-25T20:47:26.060Z,1.77
2017-11-25T20:49:53.921Z,1.40
2017-11-25T20:52:21.609Z,1.00
2017-11-25T20:54:49.532Z,1.00
2017-11-25T20:57:18.357Z,1.45
2017-11-25T20:59:46.052Z,1.30
2017-11-25T21:02:14.140Z,1.30
2017-11-25T21:04:42.351Z,1.45
2017-11-25T21:07:10.029Z,1.40
2017-11-25T21:09:38.085Z,7.68
2017-11-25T21:12:05.894Z,1.50
2017-11-25T21:14:33.581Z,1.40
2017-11-25T21:17:01.366Z,1.30
2017-11-25T21:19:29.053Z,1.80
2017-11-25T21:22:00.263Z,1.65
2017-11-25T21:24:28.096Z,1.50
2017-11-25T21:26:59.737Z,1.83
2017-11-25T21:29:27.993Z,1.60
2017-11-25T21:32:02.741Z,1.77
2017-11-25T21:34:30.726Z,1.60
2017-11-25T21:36:58.445Z,1.70
2017-11-25T21:39:26.617Z,1.73
2017-11-25T21:41:54.992Z,2.05
2017-11-25T21:44:24.682Z,4.15
2017-11-25T21:46:52.587Z,2.20
2017-11-25T21:49:22.353Z,2.33
2017-11-25T21:51:52.853Z,2.65
2017-11-25T21:54:22.185Z,5.85
2017-11-25T21:56:50.288Z,5.57
2017-11-25T21:59:18.546Z,3.78
2017-11-25T22:01:46.557Z,5.18
2017-11-25T22:04:14.773Z,5.03
2017-11-25T22:06:42.793Z,12.15
2017-11-25T22:09:10.687Z,6.55
2017-11-25T22:19:29.620Z,6.37
2017-11-25T22:21:57.215Z,6.53
2017-11-25T22:24:39.099Z,9.40
2017-11-25T22:29:42.518Z,16.05
2017-11-25T22:32:10.544Z,7.40
2017-11-25T22:34:39.029Z,8.55
2017-11-25T22:37:07.530Z,8.50
2017-11-25T22:39:35.487Z,10.40
2017-11-25T22:42:03.868Z,16.87
2017-11-25T22:44:32.073Z,9.68
2017-11-25T22:47:01.064Z,17.15
2017-11-25T22:49:31.017Z,10.10
2017-11-25T22:51:59.101Z,11.82
2017-11-25T22:54:27.397Z,14.32
2017-11-25T22:56:55.812Z,15.95
2017-11-25T22:59:24.064Z,16.10
2017-11-25T23:01:53.398Z,16.00
2017-11-25T23:04:21.280Z,9.80
2017-11-25T23:06:50.670Z,9.15
2017-11-25T23:09:19.055Z,12.85
2017-11-25T23:11:48.058Z,11.40
2017-11-25T23:14:18.025Z,16.55
2017-11-25T23:16:47.826Z,16.62
2017-11-25T23:19:17.802Z,11.10
2017-11-25T23:21:46.835Z,9.27
2017-11-25T23:24:15.452Z,13.45
2017-11-25T23:26:44.540Z,12.73
2017-11-25T23:29:16.593Z,7.65
2017-11-25T23:31:49.584Z,13.00
2017-11-25T23:34:18.692Z,15.88
2017-11-25T23:36:50.161Z,10.88
2017-11-25T23:39:17.936Z,12.15
2017-11-25T23:41:45.528Z,8.68
2017-11-25T23:44:13.085Z,15.90
2017-11-25T23:46:40.688Z,9.20
2017-11-25T23:49:10.170Z,24.98
2017-11-25T23:51:38.866Z,14.05
2017-11-25T23:54:08.017Z,17.83
2017-11-25T23:56:36.680Z,12.25
2017-11-25T23:59:04.669Z,10.80
